createdAt,value
2019-04-01T00:01:10.216Z,102181.23
2019-04-01T00:03:38.676Z,102181.01
2019-04-01T00:06:07.109Z,102184.97
2019-04-01T00:08:35.587Z,102185.56
2019-04-01T00:11:04.053Z,102193.02
2019-04-01T00:13:33.315Z,102188.60
2019-04-01T00:16:01.806Z,102188.55
2019-04-01T00:18:30.262Z,102192.58
2019-04-01T00:20:58.700Z,102197.21
2019-04-01T00:23:27.216Z,102202.45
2019-04-01T00:25:55.654Z,102196.15
2019-04-01T00:28:24.139Z,102196.29
2019-04-01T00:30:52.571Z,102196.55
2019-04-01T00:33:21.657Z,102194.42
2019-04-01T00:35:50.123Z,102200.13
2019-04-01T00:38:18.687Z,102197.49
2019-04-01T00:40:47.158Z,102197.64
2019-04-01T00:43:19.690Z,102192.50
2019-04-01T00:45:49.794Z,102191.84
2019-04-01T00:48:18.266Z,102198.85
2019-04-01T00:50:46.737Z,102197.93
2019-04-01T00:53:18.015Z,102198.59
2019-04-01T00:55:45.367Z,102196.20
2019-04-01T00:58:13.840Z,102194.08
2019-04-01T01:00:42.307Z,102195.55
2019-04-01T01:03:11.237Z,102199.08
2019-04-01T01:05:39.690Z,102196.37
2019-04-01T01:08:08.160Z,102196.71
2019-04-01T01:10:36.716Z,102196.77
2019-04-01T01:13:05.238Z,102192.73
2019-04-01T01:15:33.658Z,102193.86
2019-04-01T01:18:02.134Z,102190.52
2019-04-01T01:20:30.581Z,102197.19
2019-04-01T01:22:59.070Z,102197.86
2019-04-01T01:25:27.530Z,102197.67
2019-04-01T01:27:56.006Z,102196.32
2019-04-01T01:30:24.469Z,102198.72
2019-04-01T01:32:52.939Z,102194.34
2019-04-01T01:35:21.414Z,102200.81
2019-04-01T01:37:49.882Z,102198.42
2019-04-01T01:40:18.343Z,102194.44
2019-04-01T01:42:46.839Z,102194.70
2019-04-01T01:45:15.251Z,102202.64
2019-04-01T01:47:43.730Z,102204.53
2019-04-01T01:50:12.237Z,102206.22
2019-04-01T01:52:40.718Z,102210.28
2019-04-01T01:55:09.237Z,102211.93
2019-04-01T01:57:37.686Z,102207.86
2019-04-01T02:00:06.434Z,102213.06
2019-04-01T02:02:34.924Z,102208.89
2019-04-01T02:05:03.760Z,102205.31
2019-04-01T02:07:32.238Z,102211.48
2019-04-01T02:10:00.721Z,102221.71
2019-04-01T02:12:29.238Z,102210.65
2019-04-01T02:14:57.671Z,102213.52
2019-04-01T02:17:26.175Z,102214.72
2019-04-01T02:19:54.636Z,102218.30
2019-04-01T02:22:23.118Z,102213.52
2019-04-01T02:24:51.748Z,102214.92
2019-04-01T02:27:20.205Z,102218.23
2019-04-01T02:29:48.748Z,102218.12
2019-04-01T02:32:17.216Z,102220.14
2019-04-01T02:34:45.672Z,102216.39
2019-04-01T02:37:14.186Z,102221.10
2019-04-01T02:39:42.670Z,102214.20
2019-04-01T02:42:11.129Z,102216.16
2019-04-01T02:44:39.631Z,102214.31
2019-04-01T02:47:08.108Z,102217.47
2019-04-01T02:49:36.560Z,102213.91
2019-04-01T02:52:05.111Z,102218.73
2019-04-01T02:54:33.549Z,102218.30
2019-04-01T02:57:02.029Z,102220.64
2019-04-01T02:59:30.482Z,102220.48
2019-04-01T03:01:58.964Z,102220.58
2019-04-01T03:04:27.413Z,102221.70
2019-04-01T03:06:55.899Z,102219.41
2019-04-01T03:09:24.346Z,102222.72
2019-04-01T03:11:52.851Z,102217.66
2019-04-01T03:14:21.290Z,102219.08
2019-04-01T03:16:49.843Z,102221.72
2019-04-01T03:19:18.293Z,102221.95
2019-04-01T03:21:46.781Z,102222.88
2019-04-01T03:24:15.226Z,102226.48
2019-04-01T03:26:43.713Z,102226.33
2019-04-01T03:29:12.163Z,102216.76
2019-04-01T03:31:40.657Z,102219.28
2019-04-01T03:34:09.096Z,102223.56
2019-04-01T03:36:37.597Z,102223.17
2019-04-01T03:39:06.522Z,102218.45
2019-04-01T03:41:35.015Z,102217.25
2019-04-01T03:44:03.477Z,102220.13
2019-04-01T03:46:31.964Z,102222.05
2019-04-01T03:49:00.468Z,102218.17
2019-04-01T03:51:28.924Z,102220.95
2019-04-01T03:53:57.416Z,102221.38
2019-04-01T03:56:25.905Z,102224.75
2019-04-01T03:58:54.344Z,102216.76
2019-04-01T04:01:22.869Z,102218.66
2019-04-01T04:03:51.305Z,102221.94
2019-04-01T04:06:19.848Z,102225.44
2019-04-01T04:08:48.310Z,102217.86
2019-04-01T04:11:16.802Z,102223.53
2019-04-01T04:13:45.251Z,102225.72
2019-04-01T04:16:13.900Z,102225.23
2019-04-01T04:18:42.337Z,102227.62
2019-04-01T04:21:10.830Z,102219.45
2019-04-01T04:23:39.270Z,102229.43
2019-04-01T04:26:07.776Z,102227.80
2019-04-01T04:28:36.226Z,102227.88
2019-04-01T04:31:04.714Z,102231.33
2019-04-01T04:33:33.197Z,102221.15
2019-04-01T04:36:01.687Z,102225.53
2019-04-01T04:38:30.123Z,102234.61
2019-04-01T04:40:58.609Z,102223.03
2019-04-01T04:43:27.049Z,102228.38
2019-04-01T04:45:55.545Z,102230.41
2019-04-01T04:48:23.984Z,102234.02
2019-04-01T04:50:52.552Z,102233.48
2019-04-01T04:53:21.009Z,102236.20
2019-04-01T04:55:49.505Z,102240.55
2019-04-01T04:58:17.944Z,102240.12
2019-04-01T05:00:46.397Z,102242.61
2019-04-01T05:03:14.878Z,102244.45
2019-04-01T05:05:43.366Z,102246.81
2019-04-01T05:08:11.837Z,102240.37
2019-04-01T05:10:40.310Z,102245.84
2019-04-01T05:13:08.767Z,102247.11
2019-04-01T05:15:37.360Z,102251.78
2019-04-01T05:18:05.840Z,102251.99
2019-04-01T05:20:35.082Z,102249.50
2019-04-01T05:23:03.661Z,102254.71
2019-04-01T05:25:32.247Z,102263.09
2019-04-01T05:28:02.369Z,102263.22
2019-04-01T05:30:32.126Z,102271.34
2019-04-01T05:33:01.279Z,102280.30
2019-04-01T05:35:33.304Z,102275.45
2019-04-01T05:38:01.803Z,102275.92
2019-04-01T05:40:30.452Z,102285.58
2019-04-01T05:42:59.332Z,102277.45
2019-04-01T05:45:27.955Z,102279.81
2019-04-01T05:47:56.751Z,102274.37
2019-04-01T05:50:25.364Z,102281.70
2019-04-01T05:52:53.866Z,102278.34
2019-04-01T05:55:22.369Z,102280.64
2019-04-01T05:57:50.803Z,102284.11
2019-04-01T06:00:23.784Z,102277.84
2019-04-01T06:02:52.780Z,102287.06
2019-04-01T06:05:21.237Z,102291.45
2019-04-01T06:07:49.800Z,102292.06
2019-04-01T06:10:18.313Z,102298.88
2019-04-01T06:12:46.895Z,102299.34
2019-04-01T06:15:15.400Z,102301.00
2019-04-01T06:17:43.944Z,102297.39
2019-04-01T06:20:12.452Z,102303.56
2019-04-01T06:22:40.930Z,102304.39
2019-04-01T06:25:09.774Z,102306.29
2019-04-01T06:27:38.227Z,102304.28
2019-04-01T06:30:07.731Z,102304.50
2019-04-01T06:32:36.196Z,102311.25
2019-04-01T06:35:05.865Z,102311.76
2019-04-01T06:37:34.491Z,102313.44
2019-04-01T06:40:03.538Z,102319.19
2019-04-01T06:42:32.031Z,102314.48
2019-04-01T06:45:00.607Z,102313.73
2019-04-01T06:47:29.838Z,102316.33
2019-04-01T06:49:58.544Z,102316.28
2019-04-01T06:52:27.005Z,102320.22
2019-04-01T06:54:55.466Z,102319.75
2019-04-01T06:57:23.959Z,102326.84
2019-04-01T06:59:52.434Z,102322.38
2019-04-01T07:02:20.886Z,102323.52
2019-04-01T07:04:49.341Z,102328.41
2019-04-01T07:07:19.505Z,102333.84
2019-04-01T07:09:50.657Z,102327.53
2019-04-01T07:12:18.426Z,102328.12
2019-04-01T07:14:46.871Z,102324.39
2019-04-01T07:17:15.321Z,102335.10
2019-04-01T07:19:43.779Z,102334.11
2019-04-01T07:22:12.295Z,102330.73
2019-04-01T07:24:40.884Z,102337.29
2019-04-01T07:27:09.341Z,102335.02
2019-04-01T07:29:37.875Z,102331.22
2019-04-01T07:32:06.330Z,102330.81
2019-04-01T07:34:34.786Z,102331.09
2019-04-01T07:37:03.241Z,102330.31
2019-04-01T07:39:31.699Z,102327.02
2019-04-01T07:42:00.174Z,102321.91
2019-04-01T07:44:28.685Z,102327.69
2019-04-01T07:46:57.154Z,102318.67
2019-04-01T07:49:25.716Z,102329.05
2019-04-01T07:51:54.246Z,102326.88
2019-04-01T07:54:22.665Z,102330.01
2019-04-01T07:56:51.157Z,102339.20
2019-04-01T07:59:19.594Z,102333.36
2019-04-01T08:01:48.132Z,102338.52
2019-04-01T08:04:16.625Z,102342.92
2019-04-01T08:06:45.165Z,102342.47
2019-04-01T08:09:13.615Z,102339.44
2019-04-01T08:11:42.098Z,102343.00
2019-04-01T08:14:10.539Z,102349.71
2019-04-01T08:16:39.122Z,102352.89
2019-04-01T08:19:07.578Z,102345.18
2019-04-01T08:21:36.050Z,102358.42
2019-04-01T08:24:04.775Z,102344.70
2019-04-01T08:26:33.327Z,102340.75
2019-04-01T08:29:01.869Z,102343.59
2019-04-01T08:31:30.362Z,102337.11
2019-04-01T08:33:58.884Z,102336.16
2019-04-01T08:36:27.416Z,102332.94
2019-04-01T08:38:55.892Z,102332.90
2019-04-01T08:41:24.318Z,102334.18
2019-04-01T08:43:52.868Z,102336.69
2019-04-01T08:46:21.290Z,102339.36
2019-04-01T08:48:49.956Z,102338.84
2019-04-01T08:51:18.383Z,102340.11
2019-04-01T08:53:46.873Z,102336.09
2019-04-01T08:56:15.273Z,102336.16
2019-04-01T08:58:43.742Z,102330.09
2019-04-01T09:01:12.220Z,102329.39
2019-04-01T09:03:40.768Z,102336.03
2019-04-01T09:06:09.357Z,102337.02
2019-04-01T09:08:38.005Z,102343.46
2019-04-01T09:11:06.473Z,102338.45
2019-04-01T09:13:34.988Z,102335.59
2019-04-01T09:16:04.005Z,102325.41
2019-04-01T09:18:32.535Z,102324.52
2019-04-01T09:21:00.988Z,102317.73
2019-04-01T09:23:29.433Z,102317.34
2019-04-01T09:25:57.894Z,102316.28
2019-04-01T09:28:26.342Z,102315.42
2019-04-01T09:30:54.786Z,102316.47
2019-04-01T09:33:23.245Z,102310.76
2019-04-01T09:35:51.686Z,102297.93
2019-04-01T09:38:20.137Z,102298.73
2019-04-01T09:40:48.637Z,102301.61
2019-04-01T09:43:17.462Z,102306.67
2019-04-01T09:45:45.898Z,102297.64
2019-04-01T09:48:14.380Z,102297.55
2019-04-01T09:50:42.810Z,102292.28
2019-04-01T09:53:11.322Z,102294.11
2019-04-01T09:55:39.765Z,102288.88
2019-04-01T09:58:08.234Z,102291.25
2019-04-01T10:00:36.683Z,102280.19
2019-04-01T10:03:05.160Z,102284.34
2019-04-01T10:05:33.659Z,102277.34
2019-04-01T10:08:02.126Z,102272.64
2019-04-01T10:10:30.553Z,102274.36
2019-04-01T10:12:59.036Z,102277.87
2019-04-01T10:15:27.465Z,102275.09
2019-04-01T10:17:55.934Z,102273.12
2019-04-01T10:20:24.429Z,102266.71
2019-04-01T10:22:52.952Z,102267.10
2019-04-01T10:25:21.472Z,102262.54
2019-04-01T10:27:50.170Z,102258.64
2019-04-01T10:30:18.878Z,102266.14
2019-04-01T10:32:47.357Z,102254.52
2019-04-01T10:35:15.864Z,102252.25
2019-04-01T10:37:44.330Z,102248.73
2019-04-01T10:40:13.467Z,102248.82
2019-04-01T10:42:41.943Z,102249.49
2019-04-01T10:45:10.651Z,102238.30
2019-04-01T10:47:39.220Z,102235.80
2019-04-01T10:50:09.486Z,102240.34
2019-04-01T10:52:37.936Z,102242.56
2019-04-01T10:55:06.861Z,102232.55
2019-04-01T10:57:35.450Z,102235.84
2019-04-01T11:00:08.988Z,102230.30
2019-04-01T11:02:37.484Z,102229.69
2019-04-01T11:05:08.771Z,102223.48
2019-04-01T11:07:37.559Z,102225.31
2019-04-01T11:10:11.056Z,102217.81
2019-04-01T11:12:38.043Z,102210.73
2019-04-01T11:15:07.608Z,102223.90
2019-04-01T11:17:36.085Z,102222.27
2019-04-01T11:20:05.662Z,102213.74
2019-04-01T11:22:34.166Z,102213.34
2019-04-01T11:25:02.783Z,102208.40
2019-04-01T11:27:31.256Z,102211.74
2019-04-01T11:29:59.706Z,102200.97
2019-04-01T11:32:28.206Z,102193.36
2019-04-01T11:34:56.696Z,102191.06
2019-04-01T11:37:25.221Z,102195.95
2019-04-01T11:39:53.655Z,102208.80
2019-04-01T11:42:23.061Z,102200.39
2019-04-01T11:44:52.543Z,102189.25
2019-04-01T11:47:22.259Z,102193.50
2019-04-01T11:49:50.921Z,102184.00
2019-04-01T11:52:20.915Z,102184.55
2019-04-01T11:54:50.655Z,102183.03
2019-04-01T11:57:19.123Z,102181.64
2019-04-01T11:59:47.571Z,102179.95
2019-04-01T12:02:16.627Z,102182.33
2019-04-01T12:04:46.309Z,102187.92
2019-04-01T12:07:14.831Z,102171.27
2019-04-01T12:09:43.284Z,102179.11
2019-04-01T12:12:22.846Z,102177.79
2019-04-01T12:14:41.914Z,102181.20
2019-04-01T12:17:10.392Z,102177.32
2019-04-01T12:19:40.089Z,102159.80
2019-04-01T12:22:08.902Z,102163.36
2019-04-01T12:24:37.456Z,102160.97
2019-04-01T12:27:05.920Z,102160.98
2019-04-01T12:29:34.377Z,102159.63
2019-04-01T12:32:02.928Z,102160.64
2019-04-01T12:34:31.670Z,102158.36
2019-04-01T12:37:00.164Z,102152.30
2019-04-01T12:39:28.615Z,102159.20
2019-04-01T12:41:57.112Z,102143.89
2019-04-01T12:44:25.682Z,102139.80
2019-04-01T12:46:54.139Z,102138.45
2019-04-01T12:49:22.623Z,102131.68
2019-04-01T12:51:51.088Z,102134.95
2019-04-01T12:54:19.523Z,102136.83
2019-04-01T12:56:48.030Z,102131.14
2019-04-01T12:59:16.477Z,102123.84
2019-04-01T13:01:44.972Z,102118.03
2019-04-01T13:04:13.406Z,102123.75
2019-04-01T13:06:41.874Z,102112.66
2019-04-01T13:09:10.381Z,102110.05
2019-04-01T13:11:38.860Z,102099.69
2019-04-01T13:14:07.295Z,102102.17
2019-04-01T13:16:35.814Z,102095.70
2019-04-01T13:19:04.264Z,102099.62
2019-04-01T13:21:34.611Z,102093.19
2019-04-01T13:24:02.939Z,102073.77
2019-04-01T13:26:31.497Z,102079.12
2019-04-01T13:28:59.927Z,102064.44
2019-04-01T13:31:28.418Z,102060.53
2019-04-01T13:33:56.885Z,102058.58
2019-04-01T13:36:25.362Z,102052.38
2019-04-01T13:38:53.870Z,102051.73
2019-04-01T13:41:25.073Z,102041.20
2019-04-01T13:43:53.042Z,102048.70
2019-04-01T13:46:21.493Z,102034.03
2019-04-01T13:48:57.441Z,102036.19
2019-04-01T13:51:20.117Z,102035.91
2019-04-01T13:53:48.586Z,102028.34
2019-04-01T13:56:17.067Z,102026.37
2019-04-01T13:58:45.546Z,102023.56
2019-04-01T14:01:14.001Z,102012.86
2019-04-01T14:03:42.479Z,102003.57
2019-04-01T14:06:10.942Z,102003.24
2019-04-01T14:08:39.401Z,101991.62
2019-04-01T14:11:08.028Z,101995.89
2019-04-01T14:13:36.498Z,101991.83
2019-04-01T14:16:04.975Z,101990.53
2019-04-01T14:18:33.411Z,101962.37
2019-04-01T14:21:15.281Z,101958.31
2019-04-01T14:23:32.037Z,101950.78
2019-04-01T14:26:00.541Z,101949.47
2019-04-01T14:28:29.039Z,101942.16
2019-04-01T14:30:57.520Z,101943.42
2019-04-01T14:33:25.973Z,101929.67
2019-04-01T14:35:54.481Z,101934.05
2019-04-01T14:38:22.945Z,101922.27
2019-04-01T14:40:51.434Z,101917.06
2019-04-01T14:43:19.870Z,101919.46
2019-04-01T14:45:48.391Z,101907.08
2019-04-01T14:48:16.819Z,101902.81
2019-04-01T14:50:45.296Z,101893.45
2019-04-01T14:53:13.764Z,101892.09
2019-04-01T14:55:42.260Z,101888.81
2019-04-01T14:58:10.829Z,101892.30
2019-04-01T15:00:42.521Z,101891.77
2019-04-01T15:03:15.971Z,101879.69
2019-04-01T15:05:46.258Z,101876.34
2019-04-01T15:08:15.175Z,101866.78
2019-04-01T15:10:45.319Z,101870.92
2019-04-01T15:13:13.870Z,101866.48
2019-04-01T15:15:43.339Z,101862.38
2019-04-01T15:18:16.524Z,101856.63
2019-04-01T15:20:50.055Z,101852.50
2019-04-01T15:23:20.256Z,101846.42
2019-04-01T15:25:48.727Z,101851.14
2019-04-01T15:28:17.262Z,101843.72
2019-04-01T15:30:45.718Z,101847.81
2019-04-01T15:33:14.204Z,101836.30
2019-04-01T15:35:42.665Z,101829.67
2019-04-01T15:38:11.138Z,101836.55
2019-04-01T15:40:39.613Z,101827.77
2019-04-01T15:43:08.137Z,101826.06
2019-04-01T15:45:36.589Z,101825.23
2019-04-01T15:48:05.080Z,101825.02
2019-04-01T15:50:33.577Z,101804.09
2019-04-01T15:53:02.113Z,101810.92
2019-04-01T15:55:31.611Z,101809.81
2019-04-01T15:58:00.193Z,101810.97
2019-04-01T16:00:28.801Z,101806.30
2019-04-01T16:02:57.292Z,101803.84
2019-04-01T16:05:25.822Z,101799.98
2019-04-01T16:07:54.287Z,101801.38
2019-04-01T16:10:22.825Z,101794.14
2019-04-01T16:12:51.304Z,101788.63
2019-04-01T16:15:19.744Z,101785.64
2019-04-01T16:17:48.286Z,101787.81
2019-04-01T16:20:16.816Z,101782.89
2019-04-01T16:22:45.314Z,101793.31
2019-04-01T16:25:13.848Z,101775.17
2019-04-01T16:27:43.026Z,101777.11
2019-04-01T16:30:11.791Z,101774.08
2019-04-01T16:32:40.410Z,101774.89
2019-04-01T16:35:09.092Z,101769.13
2019-04-01T16:37:37.590Z,101769.95
2019-04-01T16:40:06.413Z,101766.91
2019-04-01T16:42:34.906Z,101771.02
2019-04-01T16:45:04.868Z,101770.43
2019-04-01T16:47:33.370Z,101767.10
2019-04-01T16:50:01.840Z,101770.95
2019-04-01T16:52:30.563Z,101768.71
2019-04-01T16:54:59.659Z,101762.95
2019-04-01T16:57:28.193Z,101761.80
2019-04-01T16:59:57.130Z,101765.88
2019-04-01T17:02:25.770Z,101769.48
2019-04-01T17:04:54.247Z,101765.86
2019-04-01T17:07:22.802Z,101763.36
2019-04-01T17:09:51.308Z,101766.95
2019-04-01T17:12:19.762Z,101762.73
2019-04-01T17:14:48.237Z,101771.02
2019-04-01T17:17:16.722Z,101767.67
2019-04-01T17:19:45.209Z,101767.33
2019-04-01T17:22:13.683Z,101769.78
2019-04-01T17:24:42.209Z,101765.32
2019-04-01T17:27:11.912Z,101766.41
2019-04-01T17:29:42.520Z,101761.97
2019-04-01T17:32:11.107Z,101759.95
2019-04-01T17:34:39.595Z,101760.20
2019-04-01T17:37:08.281Z,101763.16
2019-04-01T17:39:37.578Z,101766.70
2019-04-01T17:42:06.161Z,101758.97
2019-04-01T17:44:34.597Z,101762.95
2019-04-01T17:47:03.173Z,101759.77
2019-04-01T17:49:31.589Z,101759.44
2019-04-01T17:52:00.076Z,101764.28
2019-04-01T17:54:28.530Z,101765.11
2019-04-01T17:56:57.056Z,101762.03
2019-04-01T17:59:25.494Z,101764.63
2019-04-01T18:01:56.890Z,101763.84
2019-04-01T18:04:24.255Z,101758.72
2019-04-01T18:06:52.804Z,101762.83
2019-04-01T18:09:21.257Z,101763.66
2019-04-01T18:11:49.756Z,101767.95
2019-04-01T18:14:19.280Z,101764.56
2019-04-01T18:16:48.111Z,101766.47
2019-04-01T18:19:16.585Z,101771.83
2019-04-01T18:21:45.066Z,101773.43
2019-04-01T18:24:13.625Z,101771.88
2019-04-01T18:26:42.101Z,101770.17
2019-04-01T18:29:10.561Z,101773.38
2019-04-01T18:31:39.114Z,101773.97
2019-04-01T18:34:07.641Z,101778.90
2019-04-01T18:36:38.778Z,101783.81
2019-04-01T18:39:08.704Z,101778.25
2019-04-01T18:41:37.247Z,101781.50
2019-04-01T18:44:06.229Z,101776.80
2019-04-01T18:46:34.830Z,101784.05
2019-04-01T18:49:03.623Z,101778.52
2019-04-01T18:51:32.136Z,101781.95
2019-04-01T18:54:00.695Z,101781.23
2019-04-01T18:56:29.477Z,101780.61
2019-04-01T18:58:58.021Z,101787.91
2019-04-01T19:01:26.564Z,101787.44
2019-04-01T19:03:55.079Z,101786.20
2019-04-01T19:06:23.597Z,101787.97
2019-04-01T19:08:52.108Z,101788.43
2019-04-01T19:11:20.542Z,101784.55
2019-04-01T19:13:49.136Z,101785.30
2019-04-01T19:16:17.582Z,101789.94
2019-04-01T19:18:46.116Z,101782.52
2019-04-01T19:21:14.549Z,101781.37
2019-04-01T19:23:43.059Z,101787.36
2019-04-01T19:26:11.483Z,101784.53
2019-04-01T19:28:39.966Z,101787.28
2019-04-01T19:31:08.420Z,101779.22
2019-04-01T19:33:38.069Z,101780.13
2019-04-01T19:36:06.675Z,101775.44
2019-04-01T19:38:35.170Z,101775.35
2019-04-01T19:41:03.608Z,101775.33
2019-04-01T19:43:32.090Z,101775.33
2019-04-01T19:46:00.527Z,101767.08
2019-04-01T19:48:29.008Z,101774.64
2019-04-01T19:50:59.081Z,101775.36
2019-04-01T19:53:27.867Z,101775.59
2019-04-01T19:55:56.307Z,101767.31
2019-04-01T19:58:25.538Z,101766.72
2019-04-01T20:00:54.425Z,101765.27
2019-04-01T20:03:22.952Z,101768.11
2019-04-01T20:05:51.388Z,101763.95
2019-04-01T20:08:19.941Z,101764.69
2019-04-01T20:10:48.427Z,101761.13
2019-04-01T20:13:16.933Z,101767.48
2019-04-01T20:15:45.452Z,101764.39
2019-04-01T20:18:13.931Z,101755.55
2019-04-01T20:20:42.439Z,101763.27
2019-04-01T20:23:10.915Z,101759.05
2019-04-01T20:25:39.357Z,101757.92
2019-04-01T20:28:07.891Z,101759.81
2019-04-01T20:30:37.931Z,101757.52
2019-04-01T20:33:16.986Z,101762.20
2019-04-01T20:35:36.638Z,101753.42
2019-04-01T20:38:05.190Z,101753.39
2019-04-01T20:40:33.633Z,101749.83
2019-04-01T20:43:02.107Z,101748.10
2019-04-01T20:45:30.614Z,101745.57
2019-04-01T20:47:59.083Z,101742.02
2019-04-01T20:50:28.147Z,101741.27
2019-04-01T20:52:56.989Z,101745.66
2019-04-01T20:55:25.422Z,101737.38
2019-04-01T20:57:53.908Z,101731.22
2019-04-01T21:00:22.377Z,101732.66
2019-04-01T21:02:50.864Z,101730.28
2019-04-01T21:05:19.373Z,101732.02
2019-04-01T21:07:47.936Z,101718.14
2019-04-01T21:10:16.639Z,101720.76
2019-04-01T21:12:45.187Z,101729.04
2019-04-01T21:15:13.705Z,101721.17
2019-04-01T21:17:42.196Z,101717.61
2019-04-01T21:20:10.852Z,101715.42
2019-04-01T21:22:39.311Z,101709.94
2019-04-01T21:25:07.889Z,101713.08
2019-04-01T21:27:36.353Z,101701.13
2019-04-01T21:30:11.095Z,101703.92
2019-04-01T21:32:39.556Z,101702.67
2019-04-01T21:35:09.076Z,101695.16
2019-04-01T21:37:37.907Z,101693.83
2019-04-01T21:40:07.605Z,101694.55
2019-04-01T21:42:36.250Z,101694.86
2019-04-01T21:45:07.044Z,101688.28
2019-04-01T21:47:35.501Z,101686.53
2019-04-01T21:50:06.468Z,101694.78
2019-04-01T21:52:35.366Z,101694.25
2019-04-01T21:55:07.721Z,101684.35
2019-04-01T21:57:34.917Z,101683.17
2019-04-01T22:00:04.542Z,101679.88
2019-04-01T22:02:36.128Z,101675.69
2019-04-01T22:05:03.206Z,101670.66
2019-04-01T22:07:31.677Z,101669.52
2019-04-01T22:10:00.128Z,101663.78
2019-04-01T22:12:28.608Z,101664.08
2019-04-01T22:14:57.060Z,101664.91
2019-04-01T22:17:25.511Z,101655.73
2019-04-01T22:19:53.956Z,101658.75
2019-04-01T22:22:22.474Z,101657.73
2019-04-01T22:24:50.917Z,101652.66
2019-04-01T22:27:19.367Z,101651.94
2019-04-01T22:29:48.137Z,101643.51
2019-04-01T22:32:17.359Z,101641.66
2019-04-01T22:34:45.809Z,101643.78
2019-04-01T22:37:26.431Z,101639.84
2019-04-01T22:39:45.541Z,101636.09
2019-04-01T22:42:14.054Z,101638.70
2019-04-01T22:44:42.549Z,101637.52
2019-04-01T22:47:10.999Z,101636.52
2019-04-01T22:49:41.132Z,101634.16
2019-04-01T22:52:10.593Z,101627.89
2019-04-01T22:54:39.120Z,101621.13
2019-04-01T22:57:07.565Z,101615.00
2019-04-01T22:59:36.035Z,101615.14
2019-04-01T23:02:04.663Z,101617.72
2019-04-01T23:04:33.153Z,101612.39
2019-04-01T23:07:01.610Z,101613.02
2019-04-01T23:09:30.038Z,101612.31
2019-04-01T23:11:58.522Z,101608.94
2019-04-01T23:14:26.997Z,101601.72
2019-04-01T23:16:55.537Z,101608.69
2019-04-01T23:19:23.958Z,101603.13
2019-04-01T23:21:52.428Z,101597.59
2019-04-01T23:24:20.875Z,101599.36
2019-04-01T23:26:49.349Z,101599.80
2019-04-01T23:29:17.830Z,101595.20
2019-04-01T23:31:47.199Z,101596.44
2019-04-01T23:34:15.921Z,101595.60
2019-04-01T23:36:44.465Z,101595.42
2019-04-01T23:39:12.893Z,101591.70
2019-04-01T23:41:41.369Z,101588.95
2019-04-01T23:44:09.828Z,101584.05
2019-04-01T23:46:38.292Z,101582.98
2019-04-01T23:49:06.730Z,101575.31
2019-04-01T23:51:36.232Z,101578.79
2019-04-01T23:54:05.071Z,101571.52
2019-04-01T23:56:33.551Z,101565.68
2019-04-01T23:59:01.992Z,101569.45
